X  Schließen METAR Luftfahrt Wetterdaten     EDVE Braunschweig-Wolfsburg Airport
Temperatur
-1°C Temperatur
-3°C Taupunkt
86% Feuchtigkeit



Wind
3 KM/S
2 MPS
1 M/S
2 KTS



100°
O
Aktuelle Wetterlage

Teilweise bewölkt Teilweise bewölkt
Luftdruck 1025.06 (hPa) - 30.27 (inHg)
Sichtweite 6 (Meile) - 9.7 (Km)
Flughafen
Flughafen Code EDVE

Position : Braunschweig-Wolfsburg Airport
Entfernung: 35 (Km)

Metar:
EDVE 220320Z AUTO 10002KT 9999 FEW130/// M01/M03 Q1025

Zeit: 22-04-2024 05:20 CEST